RKTN/TAE METAR and TAF weather

Enter ICAO airport designator
Station Type Date Time Source
RKTN METAR 2019/08/23 17:00 UTC NOAA

RKTN 231700Z 32003KT 9999 FEW040 SCT200 21/18 Q1010


Station Type Date Time Source
RKTN Decoded METAR 2019/08/23 17:00 UTC NOAA

Station name not available
Aug 23, 2019 - 01:00 PM EDT / 2019.08.23 1700 UTC
Wind: from the NW (320 degrees) at 3 MPH (3 KT):0
Visibility: greater than 7 mile(s):0
Sky conditions: partly cloudy
Temperature: 69 F (21 C)
Dew Point: 64 F (18 C)
Relative Humidity: 82%
Pressure (altimeter): 29.83 in. Hg (1010 hPa)
ob: RKTN 231700Z 32003KT 9999 FEW040 SCT200 21/18 Q1010
cycle: 17

Station Type Date Time Source
RKTN TAF 2019/08/23 18:09 UTC NOAA

TAF RKTN 231700Z 2318/2424 31006KT 9999 SCT040 BKN200 TN21/2321Z TX31/2406Z

Example: see airport list